createdAt,value
2022-08-29T00:01:15.069Z,1.50
2022-08-29T00:03:43.228Z,1.47
2022-08-29T00:06:11.789Z,1.40
2022-08-29T00:08:39.701Z,1.50
2022-08-29T00:11:08.135Z,1.53
2022-08-29T00:13:36.655Z,1.87
2022-08-29T00:16:07.021Z,1.60
2022-08-29T00:18:35.921Z,1.47
2022-08-29T00:21:04.884Z,1.40
2022-08-29T00:23:32.987Z,1.87
2022-08-29T00:26:00.918Z,1.63
2022-08-29T00:28:28.826Z,1.43
2022-08-29T00:30:57.184Z,1.60
2022-08-29T00:33:26.482Z,1.50
2022-08-29T00:35:54.391Z,1.47
2022-08-29T00:38:27.710Z,1.43
2022-08-29T00:40:58.209Z,1.37
2022-08-29T00:43:28.519Z,1.60
2022-08-29T00:46:04.520Z,1.77
2022-08-29T00:48:35.752Z,1.50
2022-08-29T00:51:07.867Z,1.40
2022-08-29T00:53:39.958Z,1.80
2022-08-29T00:56:09.880Z,1.43
2022-08-29T00:58:43.101Z,1.63
2022-08-29T01:01:14.270Z,1.60
2022-08-29T01:03:44.098Z,1.73
2022-08-29T01:06:14.939Z,1.70
2022-08-29T01:08:44.065Z,1.40
2022-08-29T01:11:40.963Z,1.67
2022-08-29T01:14:10.540Z,1.60
2022-08-29T01:16:39.871Z,1.87
2022-08-29T01:19:18.485Z,1.70
2022-08-29T01:21:56.677Z,1.87
2022-08-29T01:24:36.758Z,1.87
2022-08-29T01:27:05.061Z,1.77
2022-08-29T01:29:33.083Z,1.90
2022-08-29T01:32:01.025Z,1.50
2022-08-29T01:34:30.602Z,1.83
2022-08-29T01:37:01.234Z,1.70
2022-08-29T01:39:32.925Z,1.67
2022-08-29T01:42:03.915Z,1.83
2022-08-29T01:44:31.817Z,1.33
2022-08-29T01:47:03.266Z,1.80
2022-08-29T01:49:33.134Z,1.80
2022-08-29T01:52:01.950Z,1.80
2022-08-29T01:54:32.187Z,1.47
2022-08-29T01:57:00.747Z,1.80
2022-08-29T01:59:31.114Z,1.70
2022-08-29T02:02:03.792Z,1.53
2022-08-29T02:04:31.912Z,1.77
2022-08-29T02:07:00.364Z,1.77
2022-08-29T02:09:29.637Z,1.60
2022-08-29T02:11:59.487Z,1.70
2022-08-29T02:14:27.675Z,1.63
2022-08-29T02:16:55.777Z,1.63
2022-08-29T02:19:24.041Z,1.90
2022-08-29T02:21:52.532Z,1.83
2022-08-29T02:24:27.613Z,1.67
2022-08-29T02:26:57.377Z,1.70
2022-08-29T02:29:37.197Z,1.50
2022-08-29T02:32:07.162Z,1.70
2022-08-29T02:34:36.410Z,1.67
2022-08-29T02:37:04.791Z,1.80
2022-08-29T02:39:34.081Z,1.60
2022-08-29T02:42:02.536Z,1.70
2022-08-29T02:44:31.703Z,1.57
2022-08-29T02:46:59.815Z,1.80
2022-08-29T02:49:27.736Z,1.83
2022-08-29T02:51:56.131Z,1.73
2022-08-29T02:54:24.055Z,1.90
2022-08-29T02:56:52.351Z,1.87
2022-08-29T02:59:20.283Z,1.70
2022-08-29T03:01:49.541Z,1.90
2022-08-29T03:04:17.437Z,1.90
2022-08-29T03:06:46.906Z,2.00
2022-08-29T03:09:15.149Z,2.17
2022-08-29T03:11:43.024Z,2.00
2022-08-29T03:14:10.896Z,2.27
2022-08-29T03:16:39.024Z,2.17
2022-08-29T03:19:08.456Z,1.87
2022-08-29T03:21:36.309Z,1.60
2022-08-29T03:24:04.692Z,1.70
2022-08-29T03:26:32.582Z,1.70
2022-08-29T03:29:00.401Z,1.90
2022-08-29T03:31:28.333Z,2.50
2022-08-29T03:33:56.712Z,1.80
2022-08-29T03:36:27.038Z,1.80
2022-08-29T03:38:55.160Z,1.80
2022-08-29T03:41:23.953Z,1.90
2022-08-29T03:43:52.311Z,1.97
2022-08-29T03:46:20.520Z,1.70
2022-08-29T03:48:48.584Z,1.63
2022-08-29T03:51:16.670Z,1.70
2022-08-29T03:53:46.780Z,1.70
2022-08-29T03:56:18.710Z,1.93
2022-08-29T03:58:52.554Z,2.27
2022-08-29T04:01:22.907Z,1.90
2022-08-29T04:03:51.331Z,2.00
2022-08-29T04:06:19.836Z,1.70
2022-08-29T04:08:50.940Z,2.10
2022-08-29T04:11:20.623Z,2.07
2022-08-29T04:14:07.490Z,1.70
2022-08-29T04:16:55.976Z,1.80
2022-08-29T04:19:34.274Z,2.10
2022-08-29T04:22:14.099Z,2.23
2022-08-29T04:25:36.835Z,2.00
2022-08-29T04:28:12.675Z,2.33
2022-08-29T04:33:48.282Z,2.00
2022-08-29T04:36:20.167Z,2.00
2022-08-29T04:38:52.469Z,2.47
2022-08-29T04:41:38.782Z,2.00
2022-08-29T04:44:28.331Z,2.00
2022-08-29T04:46:59.309Z,2.07
2022-08-29T04:49:29.720Z,2.77
2022-08-29T04:52:13.980Z,2.00
2022-08-29T04:54:53.820Z,2.60
2022-08-29T04:57:27.898Z,2.07
2022-08-29T05:00:04.620Z,3.10
2022-08-29T05:02:50.543Z,2.10
2022-08-29T05:05:20.712Z,2.40
2022-08-29T05:07:49.938Z,2.67
2022-08-29T05:13:09.948Z,2.27
2022-08-29T05:15:43.498Z,2.33
2022-08-29T05:18:27.748Z,2.37
2022-08-29T05:20:58.594Z,2.37
2022-08-29T05:23:45.359Z,2.23
2022-08-29T05:26:29.407Z,2.40
2022-08-29T05:29:20.198Z,2.10
2022-08-29T05:35:22.190Z,2.30
2022-08-29T05:37:54.599Z,2.77
2022-08-29T05:43:11.484Z,2.50
2022-08-29T05:45:43.800Z,2.40
2022-08-29T05:48:18.261Z,2.50
2022-08-29T05:51:15.003Z,2.90
2022-08-29T05:56:47.937Z,2.63
2022-08-29T05:59:42.433Z,3.33
2022-08-29T06:02:28.080Z,3.70
2022-08-29T06:05:04.511Z,3.60
2022-08-29T06:08:13.118Z,3.60
2022-08-29T06:10:52.526Z,3.20
2022-08-29T06:13:32.592Z,3.07
2022-08-29T06:16:30.021Z,2.67
2022-08-29T06:19:43.258Z,3.50
2022-08-29T06:22:48.570Z,3.90
2022-08-29T06:25:40.105Z,3.60
2022-08-29T06:28:14.855Z,3.20
2022-08-29T06:31:03.324Z,3.83
2022-08-29T06:33:42.933Z,4.20
2022-08-29T06:36:17.669Z,3.60
2022-08-29T06:42:38.297Z,3.37
2022-08-29T06:45:07.929Z,3.77
2022-08-29T06:47:35.833Z,3.80
2022-08-29T06:50:04.065Z,3.80
2022-08-29T06:52:31.910Z,4.23
2022-08-29T06:54:59.808Z,3.43
2022-08-29T06:57:29.334Z,3.57
2022-08-29T06:59:58.658Z,3.83
2022-08-29T07:02:26.641Z,3.10
2022-08-29T07:04:54.587Z,3.33
2022-08-29T07:07:22.435Z,3.50
2022-08-29T07:09:50.390Z,3.33
2022-08-29T07:12:18.662Z,3.43
2022-08-29T07:14:46.879Z,3.80
2022-08-29T07:17:20.892Z,2.90
2022-08-29T07:19:54.815Z,3.60
2022-08-29T07:22:22.881Z,2.97
2022-08-29T07:24:50.745Z,3.38
2022-08-29T07:27:18.665Z,3.08
2022-08-29T07:29:50.458Z,3.53
2022-08-29T07:32:23.989Z,3.10
2022-08-29T07:34:56.111Z,3.25
2022-08-29T07:37:24.542Z,2.88
2022-08-29T07:39:52.430Z,3.40
2022-08-29T07:42:20.269Z,3.10
2022-08-29T07:44:48.233Z,3.22
2022-08-29T07:47:16.395Z,2.72
2022-08-29T07:49:45.840Z,2.80
2022-08-29T07:52:13.780Z,2.70
2022-08-29T07:54:41.680Z,2.88
2022-08-29T07:57:09.616Z,2.85
2022-08-29T07:59:37.611Z,2.80
2022-08-29T08:02:06.009Z,2.78
2022-08-29T08:04:33.991Z,2.63
2022-08-29T08:07:04.775Z,3.08
2022-08-29T08:09:41.550Z,3.03
2022-08-29T08:12:13.848Z,2.70
2022-08-29T08:14:41.845Z,2.80
2022-08-29T08:17:10.201Z,2.53
2022-08-29T08:19:38.659Z,3.72
2022-08-29T08:22:08.025Z,2.85
2022-08-29T08:24:35.872Z,3.05
2022-08-29T08:27:03.806Z,3.30
2022-08-29T08:29:31.710Z,2.85
2022-08-29T08:32:00.258Z,2.95
2022-08-29T08:34:29.415Z,2.85
2022-08-29T08:36:58.190Z,3.47
2022-08-29T08:39:27.554Z,3.08
2022-08-29T08:41:58.275Z,3.20
2022-08-29T08:44:49.534Z,3.13
2022-08-29T08:47:23.340Z,2.72
2022-08-29T08:49:54.762Z,2.78
2022-08-29T08:52:29.124Z,3.08
2022-08-29T08:55:03.033Z,2.78
2022-08-29T08:57:39.720Z,2.88
2022-08-29T09:00:10.805Z,2.90
2022-08-29T09:02:49.263Z,2.80
2022-08-29T09:05:35.044Z,2.72
2022-08-29T09:08:14.524Z,2.55
2022-08-29T09:10:50.185Z,3.00
2022-08-29T09:13:29.076Z,2.85
2022-08-29T09:16:00.906Z,3.05
2022-08-29T09:18:35.409Z,3.00
2022-08-29T09:21:29.913Z,3.20
2022-08-29T09:23:59.700Z,2.67
2022-08-29T09:26:29.133Z,2.90
2022-08-29T09:28:58.917Z,2.75
2022-08-29T09:31:31.704Z,3.13
2022-08-29T09:34:02.167Z,2.83
2022-08-29T09:36:38.379Z,3.10
2022-08-29T09:39:21.548Z,3.10
2022-08-29T09:41:53.226Z,2.97
2022-08-29T09:44:25.599Z,2.80
2022-08-29T09:47:12.495Z,3.05
2022-08-29T09:49:43.257Z,3.28
2022-08-29T09:52:15.907Z,2.90
2022-08-29T09:54:44.668Z,2.83
2022-08-29T09:57:23.296Z,3.20
2022-08-29T10:00:11.943Z,3.28
2022-08-29T10:02:47.512Z,2.60
2022-08-29T10:05:33.862Z,3.10
2022-08-29T10:08:03.089Z,2.90
2022-08-29T10:10:34.717Z,2.75
2022-08-29T10:13:09.242Z,3.10
2022-08-29T10:15:50.843Z,3.13
2022-08-29T10:18:28.624Z,3.28
2022-08-29T10:21:08.109Z,3.28
2022-08-29T10:23:43.790Z,3.17
2022-08-29T10:26:26.440Z,3.42
2022-08-29T10:29:04.272Z,2.95
2022-08-29T10:31:38.975Z,3.53
2022-08-29T10:34:22.148Z,3.30
2022-08-29T10:36:58.346Z,3.20
2022-08-29T10:39:37.816Z,2.85
2022-08-29T10:42:09.993Z,3.60
2022-08-29T10:44:56.057Z,3.20
2022-08-29T10:47:30.180Z,3.03
2022-08-29T10:50:43.213Z,3.40
2022-08-29T10:53:15.964Z,3.78
2022-08-29T10:55:50.923Z,3.20
2022-08-29T10:58:31.771Z,3.67
2022-08-29T11:01:09.357Z,3.33
2022-08-29T11:03:43.984Z,3.08
2022-08-29T11:06:15.184Z,3.38
2022-08-29T11:08:48.122Z,3.45
2022-08-29T11:11:19.096Z,3.30
2022-08-29T11:13:50.953Z,3.40
2022-08-29T11:16:26.577Z,3.08
2022-08-29T11:19:01.646Z,3.50
2022-08-29T11:21:36.514Z,3.15
2022-08-29T11:24:05.539Z,3.42
2022-08-29T11:26:45.121Z,3.30
2022-08-29T11:29:27.029Z,3.17
2022-08-29T11:32:06.454Z,3.40
2022-08-29T11:34:55.367Z,3.70
2022-08-29T11:37:42.831Z,3.90
2022-08-29T11:40:47.140Z,3.10
2022-08-29T11:43:15.667Z,3.10
2022-08-29T11:45:45.233Z,3.10
2022-08-29T11:48:32.173Z,3.20
2022-08-29T11:51:00.755Z,2.92
2022-08-29T11:53:35.083Z,3.20
2022-08-29T11:56:28.827Z,3.10
2022-08-29T11:58:59.617Z,3.10
2022-08-29T12:02:00.958Z,3.53
2022-08-29T12:04:57.957Z,3.30
2022-08-29T12:07:36.949Z,3.45
2022-08-29T12:10:08.693Z,3.42
2022-08-29T12:12:46.216Z,2.95
2022-08-29T12:15:43.520Z,3.42
2022-08-29T12:18:44.909Z,3.40
2022-08-29T12:21:47.145Z,3.20
2022-08-29T12:24:38.018Z,3.25
2022-08-29T12:27:05.855Z,3.40
2022-08-29T12:29:44.919Z,3.42
2022-08-29T12:32:40.103Z,3.22
2022-08-29T12:35:31.266Z,3.58
2022-08-29T12:38:16.013Z,2.95
2022-08-29T12:40:56.371Z,3.17
2022-08-29T12:43:36.346Z,3.38
2022-08-29T12:46:17.543Z,3.30
2022-08-29T12:48:57.921Z,2.90
2022-08-29T12:51:38.013Z,2.95
2022-08-29T12:54:09.077Z,3.10
2022-08-29T12:56:39.467Z,3.05
2022-08-29T12:59:07.587Z,3.30
2022-08-29T13:01:38.453Z,3.00
2022-08-29T13:04:14.690Z,3.40
2022-08-29T13:06:53.126Z,3.13
2022-08-29T13:09:28.485Z,3.30
2022-08-29T13:12:11.905Z,3.40
2022-08-29T13:14:49.793Z,3.33
2022-08-29T13:17:20.766Z,2.90
2022-08-29T13:20:25.903Z,3.20
2022-08-29T13:23:06.299Z,3.10
2022-08-29T13:25:37.435Z,3.20
2022-08-29T13:28:06.012Z,3.20
2022-08-29T13:30:34.148Z,2.85
2022-08-29T13:33:03.722Z,3.13
2022-08-29T13:35:33.397Z,3.33
2022-08-29T13:38:19.124Z,3.65
2022-08-29T13:40:50.676Z,3.47
2022-08-29T13:43:34.407Z,3.30
2022-08-29T13:46:15.385Z,8.90
2022-08-29T13:48:44.735Z,3.17
2022-08-29T13:51:13.449Z,3.85
2022-08-29T13:53:45.410Z,4.40
2022-08-29T13:56:24.906Z,4.05
2022-08-29T13:58:54.881Z,3.80
2022-08-29T14:02:07.524Z,6.20
2022-08-29T14:04:36.989Z,3.63
2022-08-29T14:07:00.036Z,3.40
2022-08-29T14:09:33.122Z,3.47
2022-08-29T14:12:02.944Z,3.58
2022-08-29T14:14:30.915Z,3.20
2022-08-29T14:16:59.161Z,3.92
2022-08-29T14:19:28.578Z,3.60
2022-08-29T14:21:59.139Z,3.55
2022-08-29T14:24:29.095Z,3.60
2022-08-29T14:27:01.110Z,3.78
2022-08-29T14:29:31.642Z,3.55
2022-08-29T14:32:03.187Z,3.45
2022-08-29T14:34:33.217Z,3.70
2022-08-29T14:37:01.372Z,3.50
2022-08-29T14:39:29.256Z,3.47
2022-08-29T14:41:57.187Z,3.60
2022-08-29T14:44:25.457Z,3.58
2022-08-29T14:46:54.729Z,3.35
2022-08-29T14:49:22.524Z,3.20
2022-08-29T14:51:50.503Z,3.40
2022-08-29T14:54:19.231Z,4.00
2022-08-29T14:56:49.494Z,3.20
2022-08-29T14:59:18.337Z,3.40
2022-08-29T15:01:51.336Z,3.40
2022-08-29T15:04:35.383Z,3.20
2022-08-29T15:07:05.756Z,3.38
2022-08-29T15:09:34.190Z,3.50
2022-08-29T15:12:02.164Z,3.28
2022-08-29T15:14:30.214Z,3.25
2022-08-29T15:16:58.112Z,2.90
2022-08-29T15:22:15.200Z,3.22
2022-08-29T15:24:44.123Z,3.35
2022-08-29T15:27:13.392Z,3.00
2022-08-29T15:29:41.664Z,2.90
2022-08-29T15:32:10.877Z,2.97
2022-08-29T15:34:40.788Z,3.33
2022-08-29T15:37:10.812Z,3.10
2022-08-29T15:39:39.149Z,3.13
2022-08-29T15:42:11.071Z,2.70
2022-08-29T15:44:39.418Z,2.75
2022-08-29T15:47:10.557Z,3.00
2022-08-29T15:49:40.587Z,2.88
2022-08-29T15:52:08.694Z,3.10
2022-08-29T15:54:36.743Z,2.92
2022-08-29T15:57:05.745Z,2.80
2022-08-29T15:59:56.990Z,3.20
2022-08-29T16:02:23.372Z,2.97
2022-08-29T16:04:56.787Z,3.40
2022-08-29T16:07:28.964Z,3.08
2022-08-29T16:09:57.807Z,2.70
2022-08-29T16:12:25.707Z,4.18
2022-08-29T16:15:01.977Z,3.10
2022-08-29T16:17:32.632Z,2.80
2022-08-29T16:20:02.663Z,2.80
2022-08-29T16:22:30.974Z,2.67
2022-08-29T16:24:59.378Z,2.78
2022-08-29T16:27:27.709Z,2.70
2022-08-29T16:29:57.327Z,2.70
2022-08-29T16:32:25.398Z,2.45
2022-08-29T16:34:53.356Z,2.80
2022-08-29T16:37:22.843Z,2.72
2022-08-29T16:39:50.854Z,3.00
2022-08-29T16:42:18.917Z,2.53
2022-08-29T16:44:47.059Z,2.65
2022-08-29T16:47:15.315Z,2.55
2022-08-29T16:49:43.229Z,2.67
2022-08-29T16:52:11.249Z,2.53
2022-08-29T16:54:40.584Z,2.30
2022-08-29T16:57:08.508Z,2.50
2022-08-29T16:59:37.109Z,2.42
2022-08-29T17:02:05.574Z,2.80
2022-08-29T17:04:33.736Z,2.72
2022-08-29T17:07:02.484Z,2.90
2022-08-29T17:09:29.736Z,2.42
2022-08-29T17:11:57.887Z,2.45
2022-08-29T17:14:29.098Z,2.88
2022-08-29T17:16:57.368Z,2.58
2022-08-29T17:19:25.761Z,3.28
2022-08-29T17:21:53.681Z,2.85
2022-08-29T17:24:22.238Z,3.70
2022-08-29T17:26:50.164Z,3.42
2022-08-29T17:29:19.442Z,3.50
2022-08-29T17:31:47.385Z,3.20
2022-08-29T17:34:16.227Z,2.88
2022-08-29T17:36:44.683Z,2.80
2022-08-29T17:39:13.271Z,3.38
2022-08-29T17:41:41.516Z,2.90
2022-08-29T17:44:11.104Z,2.85
2022-08-29T17:46:40.463Z,2.85
2022-08-29T17:49:10.422Z,3.22
2022-08-29T17:51:40.243Z,2.88
2022-08-29T17:54:12.263Z,3.38
2022-08-29T17:56:44.291Z,2.92
2022-08-29T17:59:12.774Z,3.40
2022-08-29T18:01:42.274Z,2.83
2022-08-29T18:04:10.390Z,2.85
2022-08-29T18:06:38.996Z,2.92
2022-08-29T18:09:08.386Z,2.70
2022-08-29T18:11:39.505Z,2.60
2022-08-29T18:14:10.826Z,2.85
2022-08-29T18:16:39.542Z,2.50
2022-08-29T18:19:09.134Z,3.00
2022-08-29T18:21:37.074Z,2.80
2022-08-29T18:24:06.169Z,3.30
2022-08-29T18:26:34.979Z,2.90
2022-08-29T18:29:02.851Z,2.85
2022-08-29T18:31:30.771Z,2.72
2022-08-29T18:34:01.036Z,2.53
2022-08-29T18:36:31.355Z,2.92
2022-08-29T18:38:59.413Z,3.08
2022-08-29T18:41:27.455Z,2.50
2022-08-29T18:43:55.391Z,2.97
2022-08-29T18:46:23.508Z,2.75
2022-08-29T18:48:51.804Z,2.90
2022-08-29T18:51:20.388Z,2.33
2022-08-29T18:53:50.694Z,3.10
2022-08-29T18:56:18.859Z,2.55
2022-08-29T18:58:46.804Z,2.90
2022-08-29T19:01:27.132Z,2.90
2022-08-29T19:03:57.424Z,2.50
2022-08-29T19:06:27.530Z,2.58
2022-08-29T19:08:57.949Z,2.92
2022-08-29T19:11:27.018Z,2.58
2022-08-29T19:13:55.090Z,2.70
2022-08-29T19:16:24.382Z,2.63
2022-08-29T19:18:52.926Z,2.78
2022-08-29T19:21:20.014Z,3.17
2022-08-29T19:23:52.568Z,2.60
2022-08-29T19:26:27.136Z,2.70
2022-08-29T19:28:58.179Z,2.20
2022-08-29T19:31:29.197Z,2.60
2022-08-29T19:33:57.538Z,2.63
2022-08-29T19:36:25.704Z,2.53
2022-08-29T19:38:53.786Z,2.83
2022-08-29T19:41:25.083Z,3.00
2022-08-29T19:43:53.279Z,2.70
2022-08-29T19:46:24.644Z,2.60
2022-08-29T19:48:52.720Z,2.60
2022-08-29T19:51:24.789Z,2.58
2022-08-29T19:53:53.455Z,2.72
2022-08-29T19:56:23.829Z,2.47
2022-08-29T19:58:54.637Z,2.83
2022-08-29T20:01:22.774Z,2.30
2022-08-29T20:03:50.686Z,2.55
2022-08-29T20:06:20.621Z,2.40
2022-08-29T20:08:48.552Z,2.70
2022-08-29T20:11:19.120Z,2.88
2022-08-29T20:13:51.886Z,2.83
2022-08-29T20:16:22.576Z,2.50
2022-08-29T20:18:51.913Z,2.75
2022-08-29T20:21:20.987Z,2.65
2022-08-29T20:23:57.105Z,2.78
2022-08-29T20:26:27.177Z,2.40
2022-08-29T20:28:58.331Z,2.60
2022-08-29T20:31:26.513Z,2.70
2022-08-29T20:33:54.714Z,2.70
2022-08-29T20:36:41.593Z,2.65
2022-08-29T20:39:11.558Z,3.13
2022-08-29T20:41:39.645Z,3.00
2022-08-29T20:44:10.954Z,2.92
2022-08-29T20:46:41.117Z,3.10
2022-08-29T20:49:09.654Z,2.88
2022-08-29T20:51:38.401Z,2.78
2022-08-29T20:54:07.282Z,2.80
2022-08-29T20:56:35.201Z,2.92
2022-08-29T20:59:03.129Z,2.63
2022-08-29T21:01:33.280Z,2.80
2022-08-29T21:04:21.026Z,2.70
2022-08-29T21:06:51.382Z,2.90
2022-08-29T21:09:19.280Z,2.80
2022-08-29T21:11:47.264Z,2.50
2022-08-29T21:14:15.209Z,3.38
2022-08-29T21:16:44.417Z,2.72
2022-08-29T21:19:12.932Z,2.70
2022-08-29T21:21:42.598Z,2.75
2022-08-29T21:24:11.356Z,2.92
2022-08-29T21:26:40.155Z,2.92
2022-08-29T21:29:09.067Z,3.17
2022-08-29T21:31:37.626Z,2.85
2022-08-29T21:34:10.349Z,2.92
2022-08-29T21:36:39.864Z,2.40
2022-08-29T21:39:09.900Z,3.38
2022-08-29T21:41:40.725Z,3.15
2022-08-29T21:44:10.687Z,2.90
2022-08-29T21:46:42.995Z,3.17
2022-08-29T21:49:14.102Z,3.03
2022-08-29T21:51:41.981Z,3.25
2022-08-29T21:54:13.344Z,2.80
2022-08-29T21:56:42.379Z,3.22
2022-08-29T21:59:11.723Z,2.90
2022-08-29T22:01:40.517Z,3.20
2022-08-29T22:04:10.141Z,2.95
2022-08-29T22:06:41.258Z,2.72
2022-08-29T22:09:10.682Z,2.92
2022-08-29T22:11:39.845Z,3.05
2022-08-29T22:14:08.682Z,3.10
2022-08-29T22:16:37.126Z,2.58
2022-08-29T22:19:07.639Z,3.00
2022-08-29T22:21:37.862Z,3.03
2022-08-29T22:24:07.908Z,3.20
2022-08-29T22:26:36.769Z,2.85
2022-08-29T22:29:05.565Z,3.20
2022-08-29T22:31:33.918Z,2.83
2022-08-29T22:34:03.882Z,3.30
2022-08-29T22:36:34.306Z,3.55
2022-08-29T22:39:02.360Z,3.78
2022-08-29T22:41:31.726Z,3.95
2022-08-29T22:46:49.325Z,3.10
2022-08-29T22:49:18.012Z,3.22
2022-08-29T22:51:46.601Z,3.47
2022-08-29T22:54:31.641Z,3.50
2022-08-29T22:57:04.434Z,3.45
2022-08-29T22:59:32.433Z,3.92
2022-08-29T23:02:01.938Z,3.47
2022-08-29T23:04:30.286Z,3.40
2022-08-29T23:06:58.427Z,3.60
2022-08-29T23:09:26.321Z,3.65
2022-08-29T23:11:54.477Z,3.42
2022-08-29T23:14:24.120Z,4.20
2022-08-29T23:16:55.834Z,4.03
2022-08-29T23:19:23.697Z,3.33
2022-08-29T23:21:51.816Z,4.00
2022-08-29T23:24:20.941Z,3.75
2022-08-29T23:26:49.248Z,3.45
2022-08-29T23:29:17.197Z,3.60
2022-08-29T23:31:46.518Z,3.72
2022-08-29T23:34:14.905Z,3.67
2022-08-29T23:36:42.894Z,3.47
2022-08-29T23:39:11.054Z,3.42
2022-08-29T23:41:38.944Z,2.97
2022-08-29T23:44:06.882Z,3.25
2022-08-29T23:46:34.827Z,3.78
2022-08-29T23:49:05.361Z,3.25
2022-08-29T23:51:33.658Z,3.40
2022-08-29T23:54:01.756Z,3.45
2022-08-29T23:56:29.729Z,3.58
2022-08-29T23:58:57.904Z,3.20
